Vesta, Minnesota
Current Conditions -  °F | °C
As of 11:53 PM on Thursday 30 Oct 2014 (Local Time) from KRWF Reporting Station
Clear Clear  
Wind Chill: 23°   Ceiling: Unl
Heat Index: 32°   Visibility: 10mi
Dew Point: 19°   Wind: 12mph
Humidity: 59%   Direction: 340°NNW
Pressure: 30.44"   Gusts: 23mph
Location:  44.51°N, 95.42°W
Report Text: KRWF 310453Z AUTO 34010G20KT 10SM CLR 00/M07 A3044 RMK AO2 SLP318 T00001072
Loading
Personal Weather Stations






























Interactive Weather Map
Tropical Storm Tracking
New forecast layout! Learn more

10-Day Weather Forecast

Advertisements
Track Severe Weather on mobile